createdAt,value
2018-12-19T00:05:46.000Z,17
2018-12-19T00:15:46.000Z,17.1
2018-12-19T00:25:46.000Z,17
2018-12-19T00:35:46.000Z,16.8
2018-12-19T00:45:46.000Z,16.8
2018-12-19T00:55:46.000Z,16.8
2018-12-19T01:05:46.000Z,16.7
2018-12-19T01:15:46.000Z,16.8
2018-12-19T01:25:46.000Z,16.5
2018-12-19T01:35:46.000Z,16.5
2018-12-19T01:45:46.000Z,16.2
2018-12-19T01:55:46.000Z,16.4
2018-12-19T02:05:46.000Z,16.4
2018-12-19T02:25:46.000Z,16.4
2018-12-19T02:35:46.000Z,16.3
2018-12-19T02:45:46.000Z,16.3
2018-12-19T02:55:46.000Z,16.3
2018-12-19T03:05:46.000Z,16.3
2018-12-19T03:15:46.000Z,16.3
2018-12-19T03:25:46.000Z,16.2
2018-12-19T03:35:46.000Z,16.1
2018-12-19T03:45:46.000Z,16.4
2018-12-19T03:55:46.000Z,16.5
2018-12-19T04:05:46.000Z,16.6
2018-12-19T04:15:46.000Z,16.4
2018-12-19T04:25:46.000Z,16.5
2018-12-19T04:35:46.000Z,16.5
2018-12-19T04:45:46.000Z,16.5
2018-12-19T04:55:46.000Z,16.4
2018-12-19T05:05:46.000Z,16.3
2018-12-19T05:15:46.000Z,16.3
2018-12-19T05:25:46.000Z,16.3
2018-12-19T05:35:46.000Z,16.2
2018-12-19T05:45:46.000Z,16
2018-12-19T05:55:46.000Z,16.2
2018-12-19T06:05:48.000Z,16.1
2018-12-19T06:15:46.000Z,16.1
2018-12-19T06:25:47.000Z,16.2
2018-12-19T06:35:47.000Z,16.2
2018-12-19T06:45:47.000Z,16.3
2018-12-19T06:55:47.000Z,16.4
2018-12-19T07:05:47.000Z,17.1
2018-12-19T07:15:47.000Z,17.7
2018-12-19T07:25:47.000Z,18
2018-12-19T07:35:47.000Z,18.1
2018-12-19T07:45:47.000Z,18
2018-12-19T07:55:47.000Z,18.4
2018-12-19T08:05:47.000Z,18.4
2018-12-19T08:15:47.000Z,18.4
2018-12-19T08:25:47.000Z,18.5
2018-12-19T08:35:47.000Z,18.6
2018-12-19T08:45:47.000Z,18.6
2018-12-19T08:55:47.000Z,18.6
2018-12-19T09:05:47.000Z,18.8
2018-12-19T09:15:47.000Z,18.7
2018-12-19T09:25:47.000Z,18.7
2018-12-19T09:35:47.000Z,18.8
2018-12-19T09:45:47.000Z,18.8
2018-12-19T09:55:47.000Z,18.8
2018-12-19T10:05:47.000Z,18.9
2018-12-19T10:15:47.000Z,18.9
2018-12-19T10:25:47.000Z,18.9
2018-12-19T10:35:47.000Z,18.9
2018-12-19T10:45:47.000Z,19.1
2018-12-19T10:55:47.000Z,19
2018-12-19T11:05:47.000Z,19
2018-12-19T11:15:47.000Z,19
2018-12-19T11:25:48.000Z,18.8
2018-12-19T11:35:47.000Z,19
2018-12-19T11:45:47.000Z,19.1
2018-12-19T11:55:47.000Z,19.1
2018-12-19T12:05:47.000Z,19.1
2018-12-19T12:15:47.000Z,19.1
2018-12-19T12:25:47.000Z,19.2
2018-12-19T12:35:47.000Z,19.2
2018-12-19T12:45:48.000Z,18.9
2018-12-19T12:55:48.000Z,19.2
2018-12-19T13:05:48.000Z,19.2
2018-12-19T13:15:48.000Z,19.2
2018-12-19T13:25:48.000Z,19.3
2018-12-19T13:35:48.000Z,19.2
2018-12-19T13:45:48.000Z,19.3
2018-12-19T13:55:48.000Z,19.3
2018-12-19T14:05:48.000Z,19.3
2018-12-19T14:15:48.000Z,19.3
2018-12-19T14:25:48.000Z,19.3
2018-12-19T14:35:48.000Z,19.3
2018-12-19T14:45:48.000Z,19.5
2018-12-19T14:55:50.000Z,19.3
2018-12-19T15:05:48.000Z,19.3
2018-12-19T15:15:48.000Z,19.1
2018-12-19T15:25:48.000Z,19.3
2018-12-19T15:35:48.000Z,19.3
2018-12-19T15:45:48.000Z,19.4
2018-12-19T15:55:48.000Z,19.4
2018-12-19T16:05:48.000Z,19.4
2018-12-19T16:15:48.000Z,19.4
2018-12-19T16:25:48.000Z,19.4
2018-12-19T16:35:48.000Z,19.4
2018-12-19T16:45:48.000Z,19.2
2018-12-19T16:55:48.000Z,19.4
2018-12-19T17:05:48.000Z,19.4
2018-12-19T17:15:50.000Z,19.5
2018-12-19T17:25:48.000Z,19.7
2018-12-19T17:35:48.000Z,19.6
2018-12-19T17:45:48.000Z,19.6
2018-12-19T17:55:48.000Z,19.5
2018-12-19T18:05:48.000Z,19.6
2018-12-19T18:15:48.000Z,19.7
2018-12-19T18:25:48.000Z,19.7
2018-12-19T18:35:49.000Z,19.7
2018-12-19T18:45:48.000Z,19.7
2018-12-19T18:55:48.000Z,19.7
2018-12-19T19:05:50.000Z,19.7
2018-12-19T19:15:48.000Z,19.7
2018-12-19T19:25:48.000Z,19.7
2018-12-19T19:35:48.000Z,19.7
2018-12-19T19:45:49.000Z,19.9
2018-12-19T19:55:49.000Z,19.9
2018-12-19T20:05:49.000Z,19.7
2018-12-19T20:15:49.000Z,19.7
2018-12-19T20:25:49.000Z,19.7
2018-12-19T20:35:49.000Z,19.7
2018-12-19T20:45:49.000Z,19.8
2018-12-19T20:55:52.000Z,19.8
2018-12-19T21:05:49.000Z,19.8
2018-12-19T21:15:49.000Z,19.8
2018-12-19T21:25:49.000Z,19.8
2018-12-19T21:35:49.000Z,19.8
2018-12-19T21:45:49.000Z,19.8
2018-12-19T21:55:49.000Z,19.8
2018-12-19T22:05:49.000Z,19.8
2018-12-19T22:15:49.000Z,19.9
2018-12-19T22:35:49.000Z,19.9
2018-12-19T22:45:49.000Z,19.6
2018-12-19T22:55:49.000Z,18.8
2018-12-19T23:05:49.000Z,18.4
2018-12-19T23:15:49.000Z,18.1
2018-12-19T23:35:49.000Z,17.9
2018-12-19T23:45:49.000Z,17.8
2018-12-19T23:55:49.000Z,17.6
